sensor_id;sensor_type;location;lat;lon;timestamp;temperature;humidity
15262;DHT22;7733;51.554;13.590;2023-10-19T00:01:20;8.10;99.90
15262;DHT22;7733;51.554;13.590;2023-10-19T00:03:51;8.10;99.90
15262;DHT22;7733;51.554;13.590;2023-10-19T00:06:21;8.00;99.90
15262;DHT22;7733;51.554;13.590;2023-10-19T00:08:48;8.00;99.90
15262;DHT22;7733;51.554;13.590;2023-10-19T00:11:17;8.10;99.90
15262;DHT22;7733;51.554;13.590;2023-10-19T00:13:53;8.10;99.90
15262;DHT22;7733;51.554;13.590;2023-10-19T00:16:20;8.10;99.90
15262;DHT22;7733;51.554;13.590;2023-10-19T00:18:54;8.10;99.90
15262;DHT22;7733;51.554;13.590;2023-10-19T00:21:24;8.10;99.90
15262;DHT22;7733;51.554;13.590;2023-10-19T00:23:55;8.10;99.90
15262;DHT22;7733;51.554;13.590;2023-10-19T00:26:23;8.10;99.90
15262;DHT22;7733;51.554;13.590;2023-10-19T00:28:55;8.10;99.90
15262;DHT22;7733;51.554;13.590;2023-10-19T00:31:22;8.10;99.90
15262;DHT22;7733;51.554;13.590;2023-10-19T00:33:49;8.00;99.90
15262;DHT22;7733;51.554;13.590;2023-10-19T00:36:20;8.00;99.90
15262;DHT22;7733;51.554;13.590;2023-10-19T00:38:48;8.10;99.90
15262;DHT22;7733;51.554;13.590;2023-10-19T00:41:14;8.10;99.90
15262;DHT22;7733;51.554;13.590;2023-10-19T00:43:46;8.10;99.90
15262;DHT22;7733;51.554;13.590;2023-10-19T00:46:17;8.10;99.90
15262;DHT22;7733;51.554;13.590;2023-10-19T00:49:00;8.10;99.90
15262;DHT22;7733;51.554;13.590;2023-10-19T00:51:37;8.10;99.90
15262;DHT22;7733;51.554;13.590;2023-10-19T00:54:33;8.20;99.90
15262;DHT22;7733;51.554;13.590;2023-10-19T00:57:07;8.20;99.90
15262;DHT22;7733;51.554;13.590;2023-10-19T00:59:38;8.20;99.90
15262;DHT22;7733;51.554;13.590;2023-10-19T01:02:08;8.20;99.90
15262;DHT22;7733;51.554;13.590;2023-10-19T01:04:51;8.30;99.90
15262;DHT22;7733;51.554;13.590;2023-10-19T01:07:29;8.30;99.90
15262;DHT22;7733;51.554;13.590;2023-10-19T01:09:59;8.40;99.90
15262;DHT22;7733;51.554;13.590;2023-10-19T01:12:27;8.40;99.90
15262;DHT22;7733;51.554;13.590;2023-10-19T01:15:13;8.30;99.90
15262;DHT22;7733;51.554;13.590;2023-10-19T01:17:54;8.30;99.90
15262;DHT22;7733;51.554;13.590;2023-10-19T01:20:31;8.30;99.90
15262;DHT22;7733;51.554;13.590;2023-10-19T01:23:02;8.30;99.90
15262;DHT22;7733;51.554;13.590;2023-10-19T01:28:32;8.40;99.90
15262;DHT22;7733;51.554;13.590;2023-10-19T01:31:26;8.40;99.90
15262;DHT22;7733;51.554;13.590;2023-10-19T01:33:58;8.40;99.90
15262;DHT22;7733;51.554;13.590;2023-10-19T01:36:31;8.40;99.90
15262;DHT22;7733;51.554;13.590;2023-10-19T01:39:04;8.40;99.90
15262;DHT22;7733;51.554;13.590;2023-10-19T01:41:35;8.40;99.90
15262;DHT22;7733;51.554;13.590;2023-10-19T01:44:01;8.40;99.90
15262;DHT22;7733;51.554;13.590;2023-10-19T01:46:34;8.40;99.90
15262;DHT22;7733;51.554;13.590;2023-10-19T01:49:01;8.40;99.90
15262;DHT22;7733;51.554;13.590;2023-10-19T01:51:33;8.50;99.90
15262;DHT22;7733;51.554;13.590;2023-10-19T01:54:04;8.50;99.90
15262;DHT22;7733;51.554;13.590;2023-10-19T01:56:31;8.50;99.90
15262;DHT22;7733;51.554;13.590;2023-10-19T01:59:01;8.50;99.90
15262;DHT22;7733;51.554;13.590;2023-10-19T02:01:28;8.50;99.90
15262;DHT22;7733;51.554;13.590;2023-10-19T02:03:56;8.50;99.90
15262;DHT22;7733;51.554;13.590;2023-10-19T02:06:25;8.60;99.90
15262;DHT22;7733;51.554;13.590;2023-10-19T02:09:02;8.60;99.90
15262;DHT22;7733;51.554;13.590;2023-10-19T02:11:54;8.60;99.90
15262;DHT22;7733;51.554;13.590;2023-10-19T02:14:23;8.60;99.90
15262;DHT22;7733;51.554;13.590;2023-10-19T02:16:52;8.70;99.90
15262;DHT22;7733;51.554;13.590;2023-10-19T02:19:23;8.70;99.90
15262;DHT22;7733;51.554;13.590;2023-10-19T02:21:52;8.80;99.90
15262;DHT22;7733;51.554;13.590;2023-10-19T02:24:21;8.80;99.90
15262;DHT22;7733;51.554;13.590;2023-10-19T02:26:50;8.80;99.90
15262;DHT22;7733;51.554;13.590;2023-10-19T02:29:17;8.80;99.90
15262;DHT22;7733;51.554;13.590;2023-10-19T02:31:44;8.80;99.90
15262;DHT22;7733;51.554;13.590;2023-10-19T02:34:11;8.80;99.90
15262;DHT22;7733;51.554;13.590;2023-10-19T02:36:42;8.80;99.90
15262;DHT22;7733;51.554;13.590;2023-10-19T02:39:11;8.80;99.90
15262;DHT22;7733;51.554;13.590;2023-10-19T02:41:44;8.70;99.90
15262;DHT22;7733;51.554;13.590;2023-10-19T02:44:14;8.70;99.90
15262;DHT22;7733;51.554;13.590;2023-10-19T02:46:44;8.80;99.90
15262;DHT22;7733;51.554;13.590;2023-10-19T02:49:12;8.90;99.90
15262;DHT22;7733;51.554;13.590;2023-10-19T02:51:46;8.80;99.90
15262;DHT22;7733;51.554;13.590;2023-10-19T02:54:14;8.80;99.90
15262;DHT22;7733;51.554;13.590;2023-10-19T02:56:46;8.90;99.90
15262;DHT22;7733;51.554;13.590;2023-10-19T02:59:17;8.80;99.90
15262;DHT22;7733;51.554;13.590;2023-10-19T03:01:51;8.90;99.90
15262;DHT22;7733;51.554;13.590;2023-10-19T03:04:19;8.90;99.90
15262;DHT22;7733;51.554;13.590;2023-10-19T03:06:45;8.90;99.90
15262;DHT22;7733;51.554;13.590;2023-10-19T03:09:11;8.90;99.90
15262;DHT22;7733;51.554;13.590;2023-10-19T03:11:42;8.90;99.90
15262;DHT22;7733;51.554;13.590;2023-10-19T03:14:10;8.90;99.90
15262;DHT22;7733;51.554;13.590;2023-10-19T03:16:37;8.90;99.90
15262;DHT22;7733;51.554;13.590;2023-10-19T03:19:07;8.90;99.90
15262;DHT22;7733;51.554;13.590;2023-10-19T03:21:33;8.90;99.90
15262;DHT22;7733;51.554;13.590;2023-10-19T03:24:10;8.80;99.90
15262;DHT22;7733;51.554;13.590;2023-10-19T03:26:49;8.80;99.90
15262;DHT22;7733;51.554;13.590;2023-10-19T03:29:16;8.80;99.90
15262;DHT22;7733;51.554;13.590;2023-10-19T03:31:51;8.90;99.90
15262;DHT22;7733;51.554;13.590;2023-10-19T03:34:17;8.90;99.90
15262;DHT22;7733;51.554;13.590;2023-10-19T03:36:43;9.00;99.90
15262;DHT22;7733;51.554;13.590;2023-10-19T03:39:10;9.00;99.90
15262;DHT22;7733;51.554;13.590;2023-10-19T03:41:41;8.90;99.90
15262;DHT22;7733;51.554;13.590;2023-10-19T03:44:11;8.90;99.90
15262;DHT22;7733;51.554;13.590;2023-10-19T03:46:49;8.90;99.90
15262;DHT22;7733;51.554;13.590;2023-10-19T03:49:26;8.90;99.90
15262;DHT22;7733;51.554;13.590;2023-10-19T03:52:03;9.00;99.90
15262;DHT22;7733;51.554;13.590;2023-10-19T03:54:49;8.90;99.90
15262;DHT22;7733;51.554;13.590;2023-10-19T03:57:17;8.90;99.90
15262;DHT22;7733;51.554;13.590;2023-10-19T03:59:51;8.90;99.90
15262;DHT22;7733;51.554;13.590;2023-10-19T04:02:26;9.00;99.90
15262;DHT22;7733;51.554;13.590;2023-10-19T04:04:55;8.90;99.90
15262;DHT22;7733;51.554;13.590;2023-10-19T04:07:23;8.90;99.90
15262;DHT22;7733;51.554;13.590;2023-10-19T04:09:52;8.80;99.90
15262;DHT22;7733;51.554;13.590;2023-10-19T04:12:23;8.80;99.90
15262;DHT22;7733;51.554;13.590;2023-10-19T04:14:49;8.80;99.90
15262;DHT22;7733;51.554;13.590;2023-10-19T04:17:15;8.80;99.90
15262;DHT22;7733;51.554;13.590;2023-10-19T04:19:49;8.80;99.90
15262;DHT22;7733;51.554;13.590;2023-10-19T04:22:17;8.80;99.90
15262;DHT22;7733;51.554;13.590;2023-10-19T04:24:51;8.80;99.90
15262;DHT22;7733;51.554;13.590;2023-10-19T04:27:17;8.90;99.90
15262;DHT22;7733;51.554;13.590;2023-10-19T04:29:47;8.80;99.90
15262;DHT22;7733;51.554;13.590;2023-10-19T04:32:15;8.80;99.90
15262;DHT22;7733;51.554;13.590;2023-10-19T04:34:50;8.70;99.90
15262;DHT22;7733;51.554;13.590;2023-10-19T04:37:18;8.70;99.90
15262;DHT22;7733;51.554;13.590;2023-10-19T04:39:44;8.80;99.90
15262;DHT22;7733;51.554;13.590;2023-10-19T04:42:10;8.80;99.90
15262;DHT22;7733;51.554;13.590;2023-10-19T04:44:37;8.70;99.90
15262;DHT22;7733;51.554;13.590;2023-10-19T04:47:03;8.60;99.90
15262;DHT22;7733;51.554;13.590;2023-10-19T04:49:29;8.60;99.90
15262;DHT22;7733;51.554;13.590;2023-10-19T04:51:54;8.50;99.90
15262;DHT22;7733;51.554;13.590;2023-10-19T04:54:20;8.50;99.90
15262;DHT22;7733;51.554;13.590;2023-10-19T04:56:46;8.40;99.90
15262;DHT22;7733;51.554;13.590;2023-10-19T04:59:11;8.50;99.90
15262;DHT22;7733;51.554;13.590;2023-10-19T05:01:37;8.60;99.90
15262;DHT22;7733;51.554;13.590;2023-10-19T05:04:05;8.60;99.90
15262;DHT22;7733;51.554;13.590;2023-10-19T05:06:31;8.50;99.90
15262;DHT22;7733;51.554;13.590;2023-10-19T05:08:57;8.50;99.90
15262;DHT22;7733;51.554;13.590;2023-10-19T05:11:23;8.50;99.90
15262;DHT22;7733;51.554;13.590;2023-10-19T05:13:48;8.40;99.90
15262;DHT22;7733;51.554;13.590;2023-10-19T05:16:14;8.40;99.90
15262;DHT22;7733;51.554;13.590;2023-10-19T05:18:40;8.50;99.90
15262;DHT22;7733;51.554;13.590;2023-10-19T05:21:06;8.60;99.90
15262;DHT22;7733;51.554;13.590;2023-10-19T05:23:32;8.40;99.90
15262;DHT22;7733;51.554;13.590;2023-10-19T05:26:03;8.40;99.90
15262;DHT22;7733;51.554;13.590;2023-10-19T05:28:30;8.40;99.90
15262;DHT22;7733;51.554;13.590;2023-10-19T05:30:56;8.40;99.90
15262;DHT22;7733;51.554;13.590;2023-10-19T05:33:24;8.30;99.90
15262;DHT22;7733;51.554;13.590;2023-10-19T05:35:50;8.30;99.90
15262;DHT22;7733;51.554;13.590;2023-10-19T05:38:17;8.40;99.90
15262;DHT22;7733;51.554;13.590;2023-10-19T05:40:44;8.30;99.90
15262;DHT22;7733;51.554;13.590;2023-10-19T05:43:11;8.30;99.90
15262;DHT22;7733;51.554;13.590;2023-10-19T05:45:38;8.20;99.90
15262;DHT22;7733;51.554;13.590;2023-10-19T05:48:04;8.30;99.90
15262;DHT22;7733;51.554;13.590;2023-10-19T05:50:34;8.30;99.90
15262;DHT22;7733;51.554;13.590;2023-10-19T05:53:00;8.30;99.90
15262;DHT22;7733;51.554;13.590;2023-10-19T05:55:28;8.30;99.90
15262;DHT22;7733;51.554;13.590;2023-10-19T05:57:54;8.20;99.90
15262;DHT22;7733;51.554;13.590;2023-10-19T06:00:21;8.20;99.90
15262;DHT22;7733;51.554;13.590;2023-10-19T06:02:51;8.30;99.90
15262;DHT22;7733;51.554;13.590;2023-10-19T06:05:17;8.20;99.90
15262;DHT22;7733;51.554;13.590;2023-10-19T06:07:48;8.30;99.90
15262;DHT22;7733;51.554;13.590;2023-10-19T06:10:19;8.30;99.90
15262;DHT22;7733;51.554;13.590;2023-10-19T06:12:49;8.40;99.90
15262;DHT22;7733;51.554;13.590;2023-10-19T06:15:18;8.40;99.90
15262;DHT22;7733;51.554;13.590;2023-10-19T06:17:47;8.40;99.90
15262;DHT22;7733;51.554;13.590;2023-10-19T06:20:14;8.30;99.90
15262;DHT22;7733;51.554;13.590;2023-10-19T06:22:54;8.30;99.90
15262;DHT22;7733;51.554;13.590;2023-10-19T06:25:33;8.40;99.90
15262;DHT22;7733;51.554;13.590;2023-10-19T06:28:02;8.40;99.90
15262;DHT22;7733;51.554;13.590;2023-10-19T06:30:29;8.40;99.90
15262;DHT22;7733;51.554;13.590;2023-10-19T06:33:00;8.40;99.90
15262;DHT22;7733;51.554;13.590;2023-10-19T06:35:28;8.40;99.90
15262;DHT22;7733;51.554;13.590;2023-10-19T06:37:57;8.40;99.90
15262;DHT22;7733;51.554;13.590;2023-10-19T06:40:29;8.40;99.90
15262;DHT22;7733;51.554;13.590;2023-10-19T06:42:57;8.40;99.90
15262;DHT22;7733;51.554;13.590;2023-10-19T06:45:24;8.50;99.90
15262;DHT22;7733;51.554;13.590;2023-10-19T06:47:51;8.50;99.90
15262;DHT22;7733;51.554;13.590;2023-10-19T06:50:20;8.40;99.90
15262;DHT22;7733;51.554;13.590;2023-10-19T06:52:47;8.30;99.90
15262;DHT22;7733;51.554;13.590;2023-10-19T06:55:15;8.30;99.90
15262;DHT22;7733;51.554;13.590;2023-10-19T06:57:52;8.30;99.90
15262;DHT22;7733;51.554;13.590;2023-10-19T07:00:20;8.40;99.90
15262;DHT22;7733;51.554;13.590;2023-10-19T07:02:51;8.40;99.90
15262;DHT22;7733;51.554;13.590;2023-10-19T07:05:18;8.50;99.90
15262;DHT22;7733;51.554;13.590;2023-10-19T07:07:50;8.50;99.90
15262;DHT22;7733;51.554;13.590;2023-10-19T07:10:18;8.40;99.90
15262;DHT22;7733;51.554;13.590;2023-10-19T07:12:47;8.50;99.90
15262;DHT22;7733;51.554;13.590;2023-10-19T07:15:14;8.50;99.90
15262;DHT22;7733;51.554;13.590;2023-10-19T07:17:41;8.50;99.90
15262;DHT22;7733;51.554;13.590;2023-10-19T07:20:08;8.50;99.90
15262;DHT22;7733;51.554;13.590;2023-10-19T07:22:59;8.50;99.90
15262;DHT22;7733;51.554;13.590;2023-10-19T07:25:34;8.50;99.90
15262;DHT22;7733;51.554;13.590;2023-10-19T07:28:08;8.50;99.90
15262;DHT22;7733;51.554;13.590;2023-10-19T07:30:35;8.50;99.90
15262;DHT22;7733;51.554;13.590;2023-10-19T07:33:00;8.50;99.90
15262;DHT22;7733;51.554;13.590;2023-10-19T07:35:34;8.60;99.90
15262;DHT22;7733;51.554;13.590;2023-10-19T07:38:03;8.60;99.90
15262;DHT22;7733;51.554;13.590;2023-10-19T07:40:30;8.70;99.90
15262;DHT22;7733;51.554;13.590;2023-10-19T07:42:56;8.70;99.90
15262;DHT22;7733;51.554;13.590;2023-10-19T07:45:22;8.70;99.90
15262;DHT22;7733;51.554;13.590;2023-10-19T07:47:48;8.70;99.90
15262;DHT22;7733;51.554;13.590;2023-10-19T07:50:14;8.70;99.90
15262;DHT22;7733;51.554;13.590;2023-10-19T07:52:44;8.70;99.90
15262;DHT22;7733;51.554;13.590;2023-10-19T07:55:12;8.70;99.90
15262;DHT22;7733;51.554;13.590;2023-10-19T07:57:39;8.80;99.90
15262;DHT22;7733;51.554;13.590;2023-10-19T08:00:09;8.80;99.90
15262;DHT22;7733;51.554;13.590;2023-10-19T08:02:36;8.70;99.90
15262;DHT22;7733;51.554;13.590;2023-10-19T08:05:04;8.70;99.90
15262;DHT22;7733;51.554;13.590;2023-10-19T08:07:32;8.80;99.90
15262;DHT22;7733;51.554;13.590;2023-10-19T08:10:00;8.80;99.90
15262;DHT22;7733;51.554;13.590;2023-10-19T08:12:27;8.70;99.90
15262;DHT22;7733;51.554;13.590;2023-10-19T08:14:53;8.80;99.90
15262;DHT22;7733;51.554;13.590;2023-10-19T08:17:21;8.80;99.90
15262;DHT22;7733;51.554;13.590;2023-10-19T08:19:47;8.80;99.90
15262;DHT22;7733;51.554;13.590;2023-10-19T08:22:13;8.80;99.90
15262;DHT22;7733;51.554;13.590;2023-10-19T08:24:40;8.80;99.90
15262;DHT22;7733;51.554;13.590;2023-10-19T08:27:09;8.80;99.90
15262;DHT22;7733;51.554;13.590;2023-10-19T08:29:37;8.90;99.90
15262;DHT22;7733;51.554;13.590;2023-10-19T08:32:04;8.90;99.90
15262;DHT22;7733;51.554;13.590;2023-10-19T08:34:34;8.90;99.90
15262;DHT22;7733;51.554;13.590;2023-10-19T08:37:02;8.90;99.90
15262;DHT22;7733;51.554;13.590;2023-10-19T08:39:30;9.00;99.90
15262;DHT22;7733;51.554;13.590;2023-10-19T08:42:02;9.00;99.90
15262;DHT22;7733;51.554;13.590;2023-10-19T08:44:30;9.00;99.90
15262;DHT22;7733;51.554;13.590;2023-10-19T08:46:56;8.90;99.90
15262;DHT22;7733;51.554;13.590;2023-10-19T08:49:25;8.90;99.90
15262;DHT22;7733;51.554;13.590;2023-10-19T08:51:54;8.90;99.90
15262;DHT22;7733;51.554;13.590;2023-10-19T08:54:21;8.90;99.90
15262;DHT22;7733;51.554;13.590;2023-10-19T08:56:47;8.90;99.90
15262;DHT22;7733;51.554;13.590;2023-10-19T08:59:13;9.10;99.90
15262;DHT22;7733;51.554;13.590;2023-10-19T09:01:42;9.10;99.90
15262;DHT22;7733;51.554;13.590;2023-10-19T09:04:11;9.20;99.90
15262;DHT22;7733;51.554;13.590;2023-10-19T09:06:39;9.10;99.90
15262;DHT22;7733;51.554;13.590;2023-10-19T09:09:11;9.20;99.90
15262;DHT22;7733;51.554;13.590;2023-10-19T09:11:51;9.20;99.90
15262;DHT22;7733;51.554;13.590;2023-10-19T09:14:34;9.20;99.90
15262;DHT22;7733;51.554;13.590;2023-10-19T09:17:07;9.20;99.90
15262;DHT22;7733;51.554;13.590;2023-10-19T09:19:38;9.20;99.90
15262;DHT22;7733;51.554;13.590;2023-10-19T09:22:08;9.20;99.90
15262;DHT22;7733;51.554;13.590;2023-10-19T09:24:50;9.20;99.90
15262;DHT22;7733;51.554;13.590;2023-10-19T09:27:20;9.30;99.90
15262;DHT22;7733;51.554;13.590;2023-10-19T09:29:47;9.30;99.90
15262;DHT22;7733;51.554;13.590;2023-10-19T09:32:14;9.30;99.90
15262;DHT22;7733;51.554;13.590;2023-10-19T09:34:40;9.40;99.90
15262;DHT22;7733;51.554;13.590;2023-10-19T09:37:09;9.40;99.90
15262;DHT22;7733;51.554;13.590;2023-10-19T09:39:37;9.50;99.90
15262;DHT22;7733;51.554;13.590;2023-10-19T09:42:07;9.40;99.90
15262;DHT22;7733;51.554;13.590;2023-10-19T09:44:47;9.40;99.90
15262;DHT22;7733;51.554;13.590;2023-10-19T09:47:30;9.40;99.90
15262;DHT22;7733;51.554;13.590;2023-10-19T09:50:02;9.50;99.90
15262;DHT22;7733;51.554;13.590;2023-10-19T09:52:31;9.60;99.90
15262;DHT22;7733;51.554;13.590;2023-10-19T09:55:22;9.60;99.90
15262;DHT22;7733;51.554;13.590;2023-10-19T09:57:55;9.70;99.90
15262;DHT22;7733;51.554;13.590;2023-10-19T10:00:27;9.80;99.90
15262;DHT22;7733;51.554;13.590;2023-10-19T10:02:57;9.80;99.90
15262;DHT22;7733;51.554;13.590;2023-10-19T10:10:50;9.90;99.90
15262;DHT22;7733;51.554;13.590;2023-10-19T10:13:36;9.90;99.90
15262;DHT22;7733;51.554;13.590;2023-10-19T10:16:02;9.90;99.90
15262;DHT22;7733;51.554;13.590;2023-10-19T10:18:33;10.00;99.90
15262;DHT22;7733;51.554;13.590;2023-10-19T10:21:22;9.90;99.90
15262;DHT22;7733;51.554;13.590;2023-10-19T10:23:59;9.90;99.90
15262;DHT22;7733;51.554;13.590;2023-10-19T10:26:30;10.00;99.90
15262;DHT22;7733;51.554;13.590;2023-10-19T10:29:13;10.10;99.90
15262;DHT22;7733;51.554;13.590;2023-10-19T10:31:49;10.00;99.90
15262;DHT22;7733;51.554;13.590;2023-10-19T10:39:31;10.20;99.90
15262;DHT22;7733;51.554;13.590;2023-10-19T10:42:02;10.20;99.90
15262;DHT22;7733;51.554;13.590;2023-10-19T10:44:45;10.20;99.90
15262;DHT22;7733;51.554;13.590;2023-10-19T10:47:16;10.20;99.90
15262;DHT22;7733;51.554;13.590;2023-10-19T10:49:54;10.10;99.90
15262;DHT22;7733;51.554;13.590;2023-10-19T10:52:29;10.20;99.90
15262;DHT22;7733;51.554;13.590;2023-10-19T10:54:58;10.20;99.90
15262;DHT22;7733;51.554;13.590;2023-10-19T10:57:32;10.20;99.90
15262;DHT22;7733;51.554;13.590;2023-10-19T11:00:25;10.20;99.90
15262;DHT22;7733;51.554;13.590;2023-10-19T11:03:06;10.30;99.90
15262;DHT22;7733;51.554;13.590;2023-10-19T11:05:36;10.30;99.90
15262;DHT22;7733;51.554;13.590;2023-10-19T11:08:15;10.30;99.90
15262;DHT22;7733;51.554;13.590;2023-10-19T11:10:44;10.30;99.90
15262;DHT22;7733;51.554;13.590;2023-10-19T11:13:22;10.50;99.90
15262;DHT22;7733;51.554;13.590;2023-10-19T11:15:50;10.50;99.90
15262;DHT22;7733;51.554;13.590;2023-10-19T11:18:34;10.50;99.90
15262;DHT22;7733;51.554;13.590;2023-10-19T11:21:12;10.50;99.90
15262;DHT22;7733;51.554;13.590;2023-10-19T11:26:18;10.60;99.90
15262;DHT22;7733;51.554;13.590;2023-10-19T11:28:46;10.70;99.90
15262;DHT22;7733;51.554;13.590;2023-10-19T11:31:21;10.80;99.90
15262;DHT22;7733;51.554;13.590;2023-10-19T11:33:48;10.70;99.90
15262;DHT22;7733;51.554;13.590;2023-10-19T11:36:19;10.70;99.90
15262;DHT22;7733;51.554;13.590;2023-10-19T11:38:51;10.70;99.90
15262;DHT22;7733;51.554;13.590;2023-10-19T11:41:19;10.70;99.90
15262;DHT22;7733;51.554;13.590;2023-10-19T11:43:45;10.70;99.90
15262;DHT22;7733;51.554;13.590;2023-10-19T11:46:14;10.70;99.90
15262;DHT22;7733;51.554;13.590;2023-10-19T11:48:40;10.80;99.90
15262;DHT22;7733;51.554;13.590;2023-10-19T11:51:08;10.70;99.90
15262;DHT22;7733;51.554;13.590;2023-10-19T11:53:37;10.80;99.90
15262;DHT22;7733;51.554;13.590;2023-10-19T11:56:08;10.80;99.90
15262;DHT22;7733;51.554;13.590;2023-10-19T11:58:36;10.90;99.90
15262;DHT22;7733;51.554;13.590;2023-10-19T12:01:10;11.10;99.90
15262;DHT22;7733;51.554;13.590;2023-10-19T12:03:39;11.10;99.90
15262;DHT22;7733;51.554;13.590;2023-10-19T12:06:07;11.20;99.90
15262;DHT22;7733;51.554;13.590;2023-10-19T12:08:34;11.10;99.90
15262;DHT22;7733;51.554;13.590;2023-10-19T12:11:02;11.20;99.90
15262;DHT22;7733;51.554;13.590;2023-10-19T12:13:41;11.20;99.90
15262;DHT22;7733;51.554;13.590;2023-10-19T12:16:09;11.40;99.90
15262;DHT22;7733;51.554;13.590;2023-10-19T12:18:41;11.50;99.90
15262;DHT22;7733;51.554;13.590;2023-10-19T12:21:09;11.70;99.90
15262;DHT22;7733;51.554;13.590;2023-10-19T12:23:42;11.60;99.90
15262;DHT22;7733;51.554;13.590;2023-10-19T12:26:16;11.60;99.90
15262;DHT22;7733;51.554;13.590;2023-10-19T12:28:43;11.60;99.90
15262;DHT22;7733;51.554;13.590;2023-10-19T12:31:12;11.70;99.90
15262;DHT22;7733;51.554;13.590;2023-10-19T12:33:39;11.70;99.90
15262;DHT22;7733;51.554;13.590;2023-10-19T12:36:07;11.70;99.90
15262;DHT22;7733;51.554;13.590;2023-10-19T12:38:52;11.70;99.90
15262;DHT22;7733;51.554;13.590;2023-10-19T12:41:21;11.60;99.90
15262;DHT22;7733;51.554;13.590;2023-10-19T12:43:47;11.60;99.90
15262;DHT22;7733;51.554;13.590;2023-10-19T12:46:14;11.60;99.90
15262;DHT22;7733;51.554;13.590;2023-10-19T12:48:45;11.50;99.90
15262;DHT22;7733;51.554;13.590;2023-10-19T12:51:13;11.50;99.90
15262;DHT22;7733;51.554;13.590;2023-10-19T12:53:40;11.50;99.90
15262;DHT22;7733;51.554;13.590;2023-10-19T12:56:07;11.50;99.90
15262;DHT22;7733;51.554;13.590;2023-10-19T12:58:37;11.50;99.90
15262;DHT22;7733;51.554;13.590;2023-10-19T13:01:03;11.50;99.90
15262;DHT22;7733;51.554;13.590;2023-10-19T13:03:30;11.60;99.90
15262;DHT22;7733;51.554;13.590;2023-10-19T13:06:02;11.50;99.90
15262;DHT22;7733;51.554;13.590;2023-10-19T13:08:32;11.60;99.90
15262;DHT22;7733;51.554;13.590;2023-10-19T13:10:58;11.70;99.90
15262;DHT22;7733;51.554;13.590;2023-10-19T13:13:24;11.80;99.90
15262;DHT22;7733;51.554;13.590;2023-10-19T13:15:50;11.70;99.90
15262;DHT22;7733;51.554;13.590;2023-10-19T13:18:16;11.80;99.90
15262;DHT22;7733;51.554;13.590;2023-10-19T13:20:53;11.70;99.90
15262;DHT22;7733;51.554;13.590;2023-10-19T13:23:20;11.70;99.90
15262;DHT22;7733;51.554;13.590;2023-10-19T13:25:51;11.70;99.90
15262;DHT22;7733;51.554;13.590;2023-10-19T13:28:23;11.60;99.90
15262;DHT22;7733;51.554;13.590;2023-10-19T13:30:53;11.70;99.90
15262;DHT22;7733;51.554;13.590;2023-10-19T13:33:20;11.70;99.90
15262;DHT22;7733;51.554;13.590;2023-10-19T13:35:47;11.70;99.90
15262;DHT22;7733;51.554;13.590;2023-10-19T13:38:15;11.80;99.90
15262;DHT22;7733;51.554;13.590;2023-10-19T13:40:42;11.80;99.90
15262;DHT22;7733;51.554;13.590;2023-10-19T13:43:10;11.80;99.90
15262;DHT22;7733;51.554;13.590;2023-10-19T13:45:42;11.80;99.90
15262;DHT22;7733;51.554;13.590;2023-10-19T13:48:08;11.80;99.90
15262;DHT22;7733;51.554;13.590;2023-10-19T13:50:48;11.90;99.90
15262;DHT22;7733;51.554;13.590;2023-10-19T13:53:15;11.80;99.90
15262;DHT22;7733;51.554;13.590;2023-10-19T13:55:42;11.80;99.90
15262;DHT22;7733;51.554;13.590;2023-10-19T13:58:08;11.80;99.90
15262;DHT22;7733;51.554;13.590;2023-10-19T14:00:34;11.80;99.90
15262;DHT22;7733;51.554;13.590;2023-10-19T14:03:09;11.80;99.90
15262;DHT22;7733;51.554;13.590;2023-10-19T14:05:37;11.70;99.90
15262;DHT22;7733;51.554;13.590;2023-10-19T14:08:05;11.70;99.90
15262;DHT22;7733;51.554;13.590;2023-10-19T14:10:33;11.80;99.90
15262;DHT22;7733;51.554;13.590;2023-10-19T14:13:00;11.80;99.90
15262;DHT22;7733;51.554;13.590;2023-10-19T14:15:26;11.70;99.90
15262;DHT22;7733;51.554;13.590;2023-10-19T14:17:55;11.70;99.90
15262;DHT22;7733;51.554;13.590;2023-10-19T14:20:23;11.70;99.90
15262;DHT22;7733;51.554;13.590;2023-10-19T14:22:50;11.80;99.90
15262;DHT22;7733;51.554;13.590;2023-10-19T14:25:16;11.70;99.90
15262;DHT22;7733;51.554;13.590;2023-10-19T14:27:46;11.60;99.90
15262;DHT22;7733;51.554;13.590;2023-10-19T14:30:18;11.60;99.90
15262;DHT22;7733;51.554;13.590;2023-10-19T14:32:48;11.70;99.90
15262;DHT22;7733;51.554;13.590;2023-10-19T14:35:17;11.70;99.90
15262;DHT22;7733;51.554;13.590;2023-10-19T14:37:46;11.70;99.90
15262;DHT22;7733;51.554;13.590;2023-10-19T14:40:19;11.70;99.90
15262;DHT22;7733;51.554;13.590;2023-10-19T14:42:47;11.70;99.90
15262;DHT22;7733;51.554;13.590;2023-10-19T14:45:15;11.70;99.90
15262;DHT22;7733;51.554;13.590;2023-10-19T14:47:47;11.70;99.90
15262;DHT22;7733;51.554;13.590;2023-10-19T14:50:15;11.60;99.90
15262;DHT22;7733;51.554;13.590;2023-10-19T14:52:44;11.60;99.90
15262;DHT22;7733;51.554;13.590;2023-10-19T14:55:13;11.60;99.90
15262;DHT22;7733;51.554;13.590;2023-10-19T14:57:42;11.50;99.90
15262;DHT22;7733;51.554;13.590;2023-10-19T15:00:11;11.50;99.90
15262;DHT22;7733;51.554;13.590;2023-10-19T15:02:50;11.50;99.90
15262;DHT22;7733;51.554;13.590;2023-10-19T15:05:18;11.50;99.90
15262;DHT22;7733;51.554;13.590;2023-10-19T15:07:45;11.50;99.90
15262;DHT22;7733;51.554;13.590;2023-10-19T15:10:16;11.40;99.90
15262;DHT22;7733;51.554;13.590;2023-10-19T15:12:43;11.40;99.90
15262;DHT22;7733;51.554;13.590;2023-10-19T15:15:10;11.40;99.90
15262;DHT22;7733;51.554;13.590;2023-10-19T15:17:39;11.40;99.90
15262;DHT22;7733;51.554;13.590;2023-10-19T15:20:07;11.40;99.90
15262;DHT22;7733;51.554;13.590;2023-10-19T15:22:40;11.40;99.90
15262;DHT22;7733;51.554;13.590;2023-10-19T15:25:07;11.40;99.90
15262;DHT22;7733;51.554;13.590;2023-10-19T15:27:35;11.50;99.90
15262;DHT22;7733;51.554;13.590;2023-10-19T15:30:03;11.50;99.90
15262;DHT22;7733;51.554;13.590;2023-10-19T15:32:32;11.50;99.90
15262;DHT22;7733;51.554;13.590;2023-10-19T15:34:58;11.50;99.90
15262;DHT22;7733;51.554;13.590;2023-10-19T15:37:25;11.50;99.90
15262;DHT22;7733;51.554;13.590;2023-10-19T15:39:51;11.40;99.90
15262;DHT22;7733;51.554;13.590;2023-10-19T15:42:18;11.40;99.90
15262;DHT22;7733;51.554;13.590;2023-10-19T15:44:45;11.40;99.90
15262;DHT22;7733;51.554;13.590;2023-10-19T15:47:11;11.40;99.90
15262;DHT22;7733;51.554;13.590;2023-10-19T15:49:51;11.40;99.90
15262;DHT22;7733;51.554;13.590;2023-10-19T15:52:22;11.50;99.90
15262;DHT22;7733;51.554;13.590;2023-10-19T15:54:49;11.40;99.90
15262;DHT22;7733;51.554;13.590;2023-10-19T15:57:16;11.40;99.90
15262;DHT22;7733;51.554;13.590;2023-10-19T15:59:43;11.40;99.90
15262;DHT22;7733;51.554;13.590;2023-10-19T16:02:13;11.50;99.90
15262;DHT22;7733;51.554;13.590;2023-10-19T16:04:43;11.40;99.90
15262;DHT22;7733;51.554;13.590;2023-10-19T16:07:12;11.50;99.90
15262;DHT22;7733;51.554;13.590;2023-10-19T16:09:39;11.50;99.90
15262;DHT22;7733;51.554;13.590;2023-10-19T16:12:05;11.40;99.90
15262;DHT22;7733;51.554;13.590;2023-10-19T16:14:35;11.40;99.90